Latest Coastal Weather Observations for Gabo Island

IDV60701

Issued at 7:01 pm EST Tuesday 17 September 2019 (issued every 10 minutes, with the page automatically refreshed every 10 minutes)

About coastal observations | Map of coastal stations | Coastal observations for VIC | Marine services | Other Formats
Station Details ID: 084016 Name: GABO ISLAND LIGHTHOUSE Lat: -37.57 Lon: 149.92 Height: 15.2 m
Data from the previous 72 hours. | See also: Recent months at Gabo Island
Date/Time
EST
Wind Sea
Height
m
Swell Vis
km
Cloud Weather Temp
°C
Press
hPa
Rain since
9am
mm
Dir  Spd
kts
Gust
kts
Height
m
Period
s
Dir
17/07:00pm ENE 11 13 - - - - - - - 12.4 1029.2 0.0
17/06:30pm ENE 11 13 - - - - - - - 12.4 1028.7 0.0
17/06:00pm E 9 12 - - - - - - - 12.4 1028.8 0.0
17/05:30pm E 11 13 - - - - - - - 12.6 1028.6 0.0
17/05:00pm E 12 15 - - - - - - - 12.9 1028.4 0.0
17/04:30pm E 10 14 - - - - - - - 13.1 1028.2 0.0
17/04:00pm E 10 14 - - - - - - - 13.3 1028.1 0.0
17/03:30pm ENE 11 14 - - - - - - - 13.7 1028.0 0.0
17/03:00pm ENE 11 13 1 1.2 9 SE 40 Mostly clear Fine 13.9 1028.0 0.0
17/02:30pm ESE 4 7 - - - - - - - 13.2 1027.9 0.0
17/02:00pm S 5 7 - - - - - - - 12.8 1027.8 0.0
17/01:30pm S 10 13 - - - - - - - 12.7 1027.9 0.0
17/01:00pm S 9 11 - - - - - - - 13.4 1027.8 0.0
17/12:30pm SSW 5 7 - - - - - - - 12.6 1027.9 0.0
17/12:00pm SSW 5 6 - - - - - - - 11.9 1028.1 0.0
17/11:30am SW 5 7 - - - - - - - 11.3 1028.3 0.0
17/11:00am SSW 9 10 - - - - - - - 11.0 1028.3 0.0
17/10:30am SW 9 12 - - - - - - - 10.9 1028.3 0.0
17/10:00am WSW 8 10 - - - - - - - 10.5 1028.2 0.0
17/09:30am WNW 10 11 - - - - - - - 9.9 1027.9 0.0
17/09:00am WNW 9 11 1 1.0 9 S 10 Mostly cloudy Recent precip. 8.9 1027.9 2.6
17/08:30am NW 6 9 - - - - - - - 8.3 1027.7 2.4
17/08:00am N 8 11 - - - - - - - 8.0 1027.4 2.0
17/07:30am WNW 11 14 - - - - - - - 8.1 1026.8 0.6
17/07:00am W 8 11 - - - - - - - 8.6 1026.5 0.6
17/06:30am SSW 8 11 - - - - - - - 9.9 1025.9 0.6
17/06:00am WSW 9 12 - - - - - - - 9.3 1025.4 0.2
17/05:30am NW 10 12 - - - - - - - 7.7 1025.3 0.2
17/05:00am NW 7 10 - - - - - - - 7.7 1025.1 0.0
17/04:30am WNW 8 11 - - - - - - - 8.0 1025.0 0.0
17/04:00am WNW 10 16 - - - - - - - 7.9 1024.8 0.0
17/03:30am NW 9 12 - - - - - - - 8.0 1024.4 0.0
17/03:00am WNW 9 12 1 1.0 9 SW 30 Mostly cloudy Fine 8.9 1024.2 0.0
17/02:30am SSW 14 17 - - - - - - - 11.1 1024.2 0.0
17/02:00am SSW 14 17 - - - - - - - 11.2 1024.0 0.0
17/01:30am S 17 20 - - - - - - - 11.1 1023.9 0.0
17/01:00am SW 17 21 - - - - - - - 11.5 1024.2 0.0
17/12:30am SW 20 23 - - - - - - - 11.6 1024.2 0.0
17/12:00am SSW 20 23 - - - - - - - 11.8 1023.7 0.0
 
Date/Time
EST
Wind Sea
Height
m
Swell Vis
km
Cloud Weather Temp
°C
Press
hPa
Rain since
9am
mm
Dir  Spd
kts
Gust
kts
Height
m
Period
s
Dir
16/11:30pm SSW 20 23 - - - - - - - 11.8 1023.2 0.0
16/11:00pm SSW 23 26 - - - - - - - 11.7 1023.0 0.0
16/10:30pm SSW 22 25 - - - - - - - 11.7 1023.2 0.0
16/10:00pm SW 23 27 - - - - - - - 11.8 1023.1 0.0
16/09:30pm SW 21 24 - - - - - - - 11.7 1023.4 0.0
16/09:00pm SSW 21 25 2 1.8 7 SW 20 Cloudy Fine 11.8 1023.2 0.0
16/08:30pm SW 22 26 - - - - - - - 11.8 1022.9 0.0
16/08:00pm SW 22 27 - - - - - - - 11.9 1022.6 0.0
16/07:30pm SW 22 27 - - - - - - - 11.9 1022.3 0.0
16/07:00pm SW 24 29 - - - - - - - 11.9 1021.9 0.0
16/06:30pm SW 25 30 - - - - - - - 11.9 1021.4 0.0
16/06:00pm SW 26 31 - - - - - - - 12.1 1020.9 0.0
16/05:30pm SW 27 32 - - - - - - - 12.0 1020.6 0.0
16/05:00pm SSW 28 32 - - - - - - - 11.8 1020.1 0.0
16/04:30pm SW 28 34 - - - - - - - 12.2 1019.7 0.0
16/04:00pm SW 28 33 - - - - - - - 12.3 1019.1 0.0
16/03:30pm SW 27 32 - - - - - - - 12.4 1018.6 0.0
16/03:00pm SW 25 32 2 1.8 7 SW 20 Cloudy Distant precip. 12.0 1018.4 0.0
16/02:30pm WSW 19 23 - - - - - - - 11.3 1018.2 0.0
16/02:00pm WSW 19 23 - - - - - - - 11.7 1018.2 0.0
16/01:30pm WSW 19 24 - - - - - - - 11.1 1018.0 0.0
16/01:00pm WSW 19 23 - - - - - - - 11.5 1017.7 0.0
16/12:30pm WSW 20 25 - - - - - - - 11.5 1017.7 0.0
16/12:00pm WSW 26 32 - - - - - - - 10.9 1017.6 0.0
16/11:30am WSW 20 26 - - - - - - - 12.0 1017.4 0.0
16/11:00am WSW 21 26 - - - - - - - 11.9 1017.5 0.0
16/10:30am W 22 29 - - - - - - - 11.5 1017.2 0.0
16/10:00am W 21 26 - - - - - - - 10.7 1017.2 0.0
16/09:30am W 21 27 - - - - - - - 10.6 1017.5 0.0
16/09:00am WSW 21 25 1 1.2 7 SW 2 Cloudy Rain 10.6 1017.5 0.8
16/08:30am WSW 22 27 - - - - - - - 11.3 1017.1 0.6
16/08:04am WSW 23 33 - - - - - - - 11.1 1017.3 0.6
16/08:00am WSW 22 27 - - - - - - - 11.3 1017.3 0.6
16/07:42am WSW 22 32 - - - - - - - 11.3 1016.5 0.6
16/07:30am WSW 21 29 - - - - - - - 11.4 1016.4 0.6
16/07:00am WSW 23 29 - - - - - - - 11.2 1015.8 0.6
16/06:36am WSW 27 38 - - - - - - - 12.0 1016.0 0.4
16/06:30am WSW 24 31 - - - - - - - 12.4 1016.0 0.4
16/06:00am WSW 28 35 - - - - - - - 12.6 1014.9 0.2
16/05:30am SW 27 33 - - - - - - - 12.8 1013.9 0.0
16/05:19am SW 30 40 - - - - - - - 13.3 1013.7 0.0
16/05:08am SW 24 38 - - - - - - - 14.3 1013.3 0.0
16/05:07am SW 23 37 - - - - - - - 14.7 1013.3 0.0
16/05:00am WSW 20 25 - - - - - - - 15.0 1013.4 0.0
16/04:51am WSW 15 23 - - - - - - - 15.2 1013.2 0.0
16/04:30am SW 8 11 - - - - - - - 15.4 1012.6 0.0
16/04:00am S 7 9 - - - - - - - 15.0 1011.7 0.0
16/03:30am SSW 16 19 - - - - - - - 15.2 1011.3 0.0
16/03:06am NE 7 19 - - - - - - - 14.9 1011.1 0.0
16/03:00am NNE 7 9 - - - - - - - 14.4 1010.7 0.0
16/02:30am N 8 9 - - - - - - - 13.8 1010.8 0.0
16/02:00am N 6 7 - - - - - - - 14.5 1011.4 0.0
16/01:30am N 6 7 - - - - - - - 13.9 1012.0 0.0
16/01:00am N 6 7 - - - - - - - 14.3 1012.5 0.0
16/12:30am NW 5 6 - - - - - - - 14.4 1013.3 0.0
16/12:00am W 4 6 - - - - - - - 15.3 1014.1 0.0
 
Date/Time
EST
Wind Sea
Height
m
Swell Vis
km
Cloud Weather Temp
°C
Press
hPa
Rain since
9am
mm
Dir  Spd
kts
Gust
kts
Height
m
Period
s
Dir
15/11:30pm SW 9 11 - - - - - - - 15.8 1014.9 0.0
15/11:00pm W 4 5 - - - - - - - 15.8 1015.3 0.0
15/10:30pm WSW 7 8 - - - - - - - 15.7 1015.5 0.0
15/10:00pm WNW 5 6 - - - - - - - 15.9 1015.1 0.0
15/09:30pm W 5 7 - - - - - - - 16.0 1015.3 0.0
15/09:00pm SW 15 17 1 1.0 9 SE 30 Cloudy Fine 16.8 1015.2 0.0
15/08:30pm SW 16 18 - - - - - - - 17.2 1014.9 0.0
15/08:12pm W 14 26 - - - - - - - 18.9 1014.4 0.0
15/08:00pm NW 10 15 - - - - - - - 21.3 1013.9 0.0
15/07:30pm NW 9 13 - - - - - - - 21.5 1013.5 0.0
15/07:00pm NNW 9 13 - - - - - - - 21.1 1013.2 0.0
15/06:30pm N 7 9 - - - - - - - 17.6 1013.0 0.0
15/06:00pm N 6 8 - - - - - - - 17.7 1013.2 0.0
15/05:30pm N 6 7 - - - - - - - 18.5 1013.3 0.0
15/05:00pm N 6 9 - - - - - - - 19.8 1013.6 0.0
15/04:30pm NNE 9 14 - - - - - - - 19.4 1013.3 0.0
15/04:00pm NNE 11 14 - - - - - - - 18.9 1013.5 0.0
15/03:30pm NNE 10 12 - - - - - - - 19.1 1013.8 0.0
15/03:00pm NE 13 15 <0.5 1.0 9 SE 30 Mostly cloudy Fine 18.6 1014.1 0.0
15/02:30pm NE 11 13 - - - - - - - 18.2 1014.4 0.0
15/02:00pm NNE 9 12 - - - - - - - 18.7 1014.8 0.0
15/01:30pm NNE 7 8 - - - - - - - 17.5 1015.1 0.0
15/01:00pm NNE 7 8 - - - - - - - 17.8 1015.6 0.0
15/12:30pm NE 8 11 - - - - - - - 17.8 1016.0 0.0
15/12:00pm NNE 8 11 - - - - - - - 19.0 1016.4 0.0
15/11:30am NNE 5 7 - - - - - - - 20.3 1016.9 0.0
15/11:00am NNE 5 6 - - - - - - - 17.8 1017.1 0.0
15/10:30am NNE 4 5 - - - - - - - 16.1 1017.5 0.0
15/10:00am ENE 4 5 - - - - - - - 15.9 1018.0 0.0
15/09:30am NE 4 5 - - - - - - - 14.7 1018.4 0.0
15/09:00am NNE 5 6 <0.5 1.0 9 SE 15 Cloudy Fog patches 13.8 1018.6 0.0
15/08:30am N 1 4 - - - - - - - 13.6 1018.8 0.0
15/08:00am CALM 0 0 - - - - - - - 12.8 1018.8 0.0
15/07:30am WNW 4 5 - - - - - - - 11.9 1018.9 0.0
15/07:00am WNW 4 6 - - - - - - - 11.1 1018.7 0.0
15/06:30am W 5 6 - - - - - - - 10.6 1018.7 0.0
15/06:00am N 3 4 - - - - - - - 10.7 1018.3 0.0
15/05:30am NNE 6 7 - - - - - - - 10.7 1018.0 0.0
15/05:00am NNE 5 7 - - - - - - - 9.8 1018.1 0.0
15/04:30am NNE 1 4 - - - - - - - 9.1 1018.3 0.0
15/04:00am W 4 7 - - - - - - - 9.4 1018.5 0.0
15/03:30am W 5 7 - - - - - - - 9.2 1018.5 0.0
15/03:00am W 5 6 <0.5 1.0 9 S 7 Mostly cloudy Mist 9.2 1018.6 0.0
15/02:30am WNW 4 4 - - - - - - - 9.4 1018.7 0.0
15/02:00am WNW 4 6 - - - - - - - 8.6 1019.0 0.0
15/01:30am W 6 7 - - - - - - - 8.2 1019.6 0.0
15/01:00am WSW 5 6 - - - - - - - 7.5 1019.6 0.0
15/12:30am W 4 5 - - - - - - - 9.2 1019.8 0.0
15/12:00am W 5 6 - - - - - - - 9.9 1020.0 0.0
 
Date/Time
EST
Wind Sea
Height
m
Swell Vis
km
Cloud Weather Temp
°C
Press
hPa
Rain since
9am
mm
Dir  Spd
kts
Gust
kts
Height
m
Period
s
Dir
14/11:30pm N 5 6 - - - - - - - 9.8 1020.5 0.0
14/11:00pm N 8 9 - - - - - - - 9.6 1020.7 0.0
14/10:30pm N 6 7 - - - - - - - 9.1 1021.0 0.0
14/10:00pm N 7 9 - - - - - - - 9.0 1021.4 0.0
14/09:30pm NNW 5 7 - - - - - - - 9.8 1021.6 0.0
14/09:00pm W 8 10 2 1.5 7 S 30 Clear Fine 10.8 1021.9 0.0
14/08:30pm W 11 13 - - - - - - - 11.8 1022.1 0.0
14/08:00pm W 11 15 - - - - - - - 11.8 1022.1 0.0
14/07:30pm WSW 11 13 - - - - - - - 12.2 1022.1 0.0

Other formats

Comma delimited format used in spreadsheet applications
http://www.bom.gov.au/fwo/IDV60701/IDV60701.94933.axf

JavaScript Object Notation format (JSON) in row-major order
http://www.bom.gov.au/fwo/IDV60701/IDV60701.94933.json

Data quality

Most of these data are generated automatically and are frequently updated. Quality checks on data are not normally performed. It is possible for incorrect values to appear. Refer to information at About Latest Weather Observations and please check the disclaimer before using these data.